Time;durP1;ratioP1;P1;durP2;ratioP2;P2;SDS_P1;SDS_P2;PMS_P1;PMS_P2;Temp;Humidity;BMP_temperature;BMP_pressure;BME280_temperature;BME280_humidity;BME280_pressure;Samples;Min_cycle;Max_cycle;Signal;HPM_P1;HPM_P2
2022/08/19 00:00:38;;;;;;;16.02;14.93;;;;;;;21.64;84.10;99158.41;10414977;28;20053;-69
2022/08/19 00:05:42;;;;;;;17.50;16.30;;;;;;;21.70;84.14;99163.22;10415557;28;20038;-69
2022/08/19 00:10:45;;;;;;;15.65;14.68;;;;;;;21.57;84.86;99168.00;10416188;28;20072;-69
2022/08/19 00:15:47;;;;;;;15.88;14.77;;;;;;;21.62;85.14;99169.25;10414219;28;20068;-70
2022/08/19 00:20:48;;;;;;;16.27;15.20;;;;;;;21.55;85.38;99168.09;10418485;28;20557;-69
2022/08/19 00:25:50;;;;;;;16.52;15.63;;;;;;;21.57;86.15;99178.69;10423453;28;20076;-70
2022/08/19 00:30:53;;;;;;;17.45;16.10;;;;;;;21.36;88.08;99179.63;10423695;28;20470;-69
2022/08/19 00:35:55;;;;;;;16.08;14.82;;;;;;;21.38;88.01;99191.06;10422087;28;20116;-70
2022/08/19 00:40:56;;;;;;;16.15;15.25;;;;;;;21.36;88.22;99194.81;10422925;28;20042;-70
2022/08/19 00:45:59;;;;;;;16.23;15.23;;;;;;;21.34;88.93;99204.81;10422257;28;20411;-69
2022/08/19 00:51:01;;;;;;;17.27;16.17;;;;;;;21.45;88.12;99188.66;10422859;28;20483;-69
2022/08/19 00:56:05;;;;;;;17.48;16.27;;;;;;;21.53;87.80;99194.16;10422375;28;20116;-69
2022/08/19 01:01:07;;;;;;;18.75;17.65;;;;;;;21.38;89.45;99185.69;10421873;28;20128;-69
2022/08/19 01:06:12;;;;;;;19.17;17.88;;;;;;;21.22;90.74;99185.34;10421547;28;20059;-69
2022/08/19 01:11:20;;;;;;;19.30;18.15;;;;;;;21.13;91.85;99178.16;10421109;28;20556;-69
2022/08/19 01:16:25;;;;;;;20.80;19.30;;;;;;;21.16;92.54;99185.88;10419689;28;20041;-69
2022/08/19 01:21:34;;;;;;;20.75;19.55;;;;;;;21.22;92.43;99189.84;10421288;28;20053;-69
2022/08/19 01:26:42;;;;;;;19.40;18.30;;;;;;;21.26;91.99;99200.13;10420968;28;20392;-69
2022/08/19 01:31:44;;;;;;;18.40;17.30;;;;;;;21.20;93.20;99211.34;10419777;28;20041;-69
2022/08/19 01:36:47;;;;;;;19.70;18.30;;;;;;;21.11;93.84;99199.66;10421346;28;20045;-69
2022/08/19 01:41:49;;;;;;;19.35;18.25;;;;;;;21.29;93.39;99204.34;10420067;28;20513;-70
2022/08/19 01:46:51;;;;;;;17.73;16.67;;;;;;;21.17;93.88;99193.78;10419437;28;20041;-69
2022/08/19 01:51:53;;;;;;;19.60;18.42;;;;;;;21.24;94.45;99193.22;10419951;28;20053;-69
2022/08/19 01:57:01;;;;;;;18.25;17.17;;;;;;;21.11;95.09;99202.31;10420286;28;20384;-70
2022/08/19 02:02:08;;;;;;;19.25;18.15;;;;;;;21.15;95.13;99206.41;10420782;28;20042;-70
2022/08/19 02:07:10;;;;;;;18.55;17.45;;;;;;;21.13;95.65;99199.53;10420196;28;20128;-69
2022/08/19 02:12:11;;;;;;;19.38;18.05;;;;;;;21.07;96.47;99174.22;10419850;28;20049;-69
2022/08/19 02:17:13;;;;;;;17.63;16.42;;;;;;;21.24;94.90;99155.78;10419363;28;20053;-69
2022/08/19 02:22:15;;;;;;;17.70;16.65;;;;;;;21.18;95.55;99159.88;10419584;28;20522;-69
2022/08/19 02:27:16;;;;;;;17.83;16.80;;;;;;;20.99;97.85;99195.41;10418293;28;20049;-70
2022/08/19 02:32:19;;;;;;;18.90;17.73;;;;;;;21.37;95.30;99209.88;10417773;28;20545;-69
2022/08/19 02:42:42;;;;;;;17.98;16.95;;;;;;;21.23;95.85;99204.91;10417085;28;20064;-69
2022/08/19 02:47:44;;;;;;;19.02;17.60;;;;;;;21.03;97.72;99191.50;10417592;28;20051;-69
2022/08/19 02:52:45;;;;;;;17.38;16.33;;;;;;;21.17;95.99;99191.09;10417983;28;20045;-69
2022/08/19 02:57:48;;;;;;;18.63;17.42;;;;;;;21.36;95.15;99200.19;10417383;28;20038;-69
2022/08/19 03:02:49;;;;;;;18.25;17.05;;;;;;;21.24;95.52;99210.09;10417992;28;20049;-69
2022/08/19 03:07:51;;;;;;;19.67;18.45;;;;;;;21.21;96.77;99213.06;10416822;28;20040;-69
2022/08/19 03:12:53;;;;;;;18.90;17.70;;;;;;;21.20;96.99;99205.16;10415102;28;20045;-69
2022/08/19 03:17:55;;;;;;;20.38;19.17;;;;;;;21.22;96.74;99196.03;10417591;28;20050;-69
2022/08/19 03:22:57;;;;;;;21.15;19.63;;;;;;;21.01;98.26;99195.25;10416090;28;20065;-69
2022/08/19 03:27:59;;;;;;;18.88;17.77;;;;;;;21.09;97.61;99204.28;10416662;28;20049;-69
2022/08/19 03:33:01;;;;;;;21.63;20.30;;;;;;;21.02;98.77;99204.97;10417287;28;20495;-70
2022/08/19 03:38:06;;;;;;;20.08;18.77;;;;;;;21.28;95.87;99205.31;10417046;28;20049;-69
2022/08/19 03:43:08;;;;;;;19.10;17.90;;;;;;;21.13;96.82;99211.06;10419280;28;20094;-69
2022/08/19 03:48:09;;;;;;;19.40;18.30;;;;;;;21.02;97.92;99218.31;10416320;28;20120;-70
2022/08/19 03:53:11;;;;;;;20.05;18.70;;;;;;;21.19;96.65;99217.69;10417568;28;20111;-69
2022/08/19 03:58:13;;;;;;;20.05;18.58;;;;;;;21.06;96.85;99227.75;10424844;28;20078;-69
2022/08/19 04:03:15;;;;;;;19.58;18.33;;;;;;;21.34;94.64;99221.72;10425605;28;20048;-69
2022/08/19 04:08:22;;;;;;;17.65;16.35;;;;;;;21.09;96.70;99217.66;10427242;28;20518;-68
2022/08/19 04:13:23;;;;;;;19.50;18.42;;;;;;;21.27;94.62;99217.00;10427038;28;20042;-73
2022/08/19 04:18:25;;;;;;;18.00;16.83;;;;;;;21.22;95.70;99213.91;10427816;28;20045;-75
2022/08/19 04:23:30;;;;;;;19.77;18.60;;;;;;;21.04;96.67;99203.84;10423882;28;20041;-75
2022/08/19 04:28:32;;;;;;;20.00;18.15;;;;;;;21.09;96.17;99200.78;10423833;28;20417;-75
2022/08/19 04:33:34;;;;;;;18.45;17.30;;;;;;;21.12;95.41;99214.72;10424197;28;20426;-75
2022/08/19 04:38:36;;;;;;;18.52;17.42;;;;;;;21.11;96.17;99213.00;10425472;28;20101;-75
2022/08/19 04:43:38;;;;;;;18.65;17.65;;;;;;;21.21;95.12;99215.72;10423263;28;20155;-75
2022/08/19 04:48:40;;;;;;;18.23;17.15;;;;;;;21.25;94.75;99229.66;10426175;28;20069;-75
2022/08/19 04:53:51;;;;;;;19.55;18.25;;;;;;;21.15;95.21;99237.63;10423713;28;20052;-75
2022/08/19 04:58:54;;;;;;;18.30;17.20;;;;;;;21.24;94.23;99225.28;10424723;28;20042;-75
2022/08/19 05:03:56;;;;;;;19.13;18.13;;;;;;;21.21;94.89;99218.41;10427540;28;20145;-75
2022/08/19 05:08:58;;;;;;;20.42;19.23;;;;;;;21.32;94.15;99218.31;10425278;28;20041;-75
2022/08/19 05:14:01;;;;;;;19.85;18.58;;;;;;;21.18;95.43;99224.00;10425622;28;20132;-75
2022/08/19 05:24:23;;;;;;;22.05;20.60;;;;;;;20.93;96.89;99249.34;10421060;28;20046;-75
2022/08/19 05:29:27;;;;;;;20.95;19.63;;;;;;;21.04;95.87;99262.63;10422392;28;20557;-75
2022/08/19 05:34:37;;;;;;;20.92;19.70;;;;;;;21.08;95.83;99266.75;10422119;28;20417;-74
2022/08/19 05:39:40;;;;;;;21.10;19.88;;;;;;;21.07;95.32;99277.53;10425401;28;20049;-74
2022/08/19 05:44:46;;;;;;;20.10;18.88;;;;;;;20.90;96.86;99289.72;10424491;28;20045;-73
2022/08/19 05:49:50;;;;;;;17.63;16.65;;;;;;;21.00;95.69;99295.09;10423769;28;20041;-73
2022/08/19 05:54:54;;;;;;;16.13;15.13;;;;;;;20.96;95.41;99315.88;10420406;28;20050;-73
2022/08/19 05:59:57;;;;;;;15.90;14.90;;;;;;;21.02;94.57;99325.19;10420290;28;20139;-73
2022/08/19 06:04:59;;;;;;;13.23;12.32;;;;;;;21.02;93.26;99336.72;10420083;28;20470;-73
2022/08/19 06:10:03;;;;;;;11.80;11.05;;;;;;;20.90;94.46;99335.97;10420829;28;20041;-72
2022/08/19 06:15:09;;;;;;;10.77;9.98;;;;;;;21.08;92.44;99348.75;10420687;28;20046;-73
2022/08/19 06:20:14;;;;;;;11.23;10.52;;;;;;;21.16;91.30;99373.81;10421928;28;20560;-74
2022/08/19 06:25:16;;;;;;;11.50;10.63;;;;;;;21.10;92.76;99389.53;10421788;28;20065;-73
2022/08/19 06:30:18;;;;;;;12.18;11.32;;;;;;;21.13;92.35;99386.59;10420181;28;20060;-73
2022/08/19 06:35:20;;;;;;;11.30;10.55;;;;;;;21.04;93.67;99398.91;10419623;28;20556;-72
2022/08/19 06:40:22;;;;;;;11.52;10.73;;;;;;;21.20;91.60;99398.44;10417883;28;20049;-71
2022/08/19 06:45:24;;;;;;;43.83;12.50;;;;;;;21.13;92.77;99400.81;10416334;28;20054;-70
2022/08/19 06:50:36;;;;;;;12.35;11.65;;;;;;;21.24;92.39;99405.22;10419573;28;20042;-70
2022/08/19 06:55:41;;;;;;;14.00;12.02;;;;;;;21.33;92.03;99412.47;10419771;28;20052;-71
2022/08/19 07:00:43;;;;;;;13.60;12.73;;;;;;;21.29;93.30;99426.19;10421829;28;20041;-72
2022/08/19 07:05:45;;;;;;;15.45;14.45;;;;;;;21.20;94.42;99427.00;10419026;28;20036;-72
2022/08/19 07:10:48;;;;;;;16.85;15.85;;;;;;;21.07;96.86;99413.81;10417399;28;20495;-71
2022/08/19 07:15:50;;;;;;;16.45;15.35;;;;;;;21.02;98.83;99403.53;10417386;28;20088;-71
2022/08/19 07:21:12;;;;;;;16.98;15.88;;;;;;;20.91;99.92;99404.44;10416797;28;20064;-71
2022/08/19 07:26:16;;;;;;;17.63;16.55;;;;;;;20.88;100.00;99419.88;10416900;28;20072;-71
2022/08/19 07:31:22;;;;;;;17.70;16.70;;;;;;;20.69;100.00;99430.44;10417043;28;20129;-71
2022/08/19 07:36:32;;;;;;;19.42;18.23;;;;;;;20.76;100.00;99436.94;10416642;28;20049;-71
2022/08/19 07:41:36;;;;;;;18.10;17.00;;;;;;;20.58;100.00;99441.97;10416994;28;20049;-72
2022/08/19 07:46:41;;;;;;;18.70;17.63;;;;;;;20.73;100.00;99451.41;10416810;28;20112;-72
2022/08/19 07:51:48;;;;;;;19.02;17.73;;;;;;;20.62;100.00;99441.59;10418576;28;20049;-72
2022/08/19 07:56:50;;;;;;;19.65;18.45;;;;;;;20.66;100.00;99436.84;10418138;28;20158;-71
2022/08/19 08:01:53;;;;;;;19.95;18.75;;;;;;;20.65;100.00;99438.69;10417081;28;20454;-72
2022/08/19 08:12:19;;;;;;;21.00;19.33;;;;;;;20.54;100.00;99446.75;10416830;28;20049;-72
2022/08/19 08:17:36;;;;;;;21.13;19.55;;;;;;;20.69;100.00;99449.97;10416903;28;20496;-71
2022/08/19 08:28:12;;;;;;;17.80;16.85;;;;;;;20.80;100.00;99459.75;10416177;28;20069;-71
2022/08/19 08:33:21;;;;;;;16.30;15.30;;;;;;;20.82;100.00;99464.00;10415841;28;20057;-71
2022/08/19 08:38:36;;;;;;;14.73;13.80;;;;;;;21.01;100.00;99460.63;10415002;28;20056;-71
2022/08/19 08:43:46;;;;;;;13.38;12.60;;;;;;;21.02;100.00;99474.81;10419867;28;20057;-70
2022/08/19 08:48:58;;;;;;;13.13;12.33;;;;;;;20.96;100.00;99484.22;10421839;28;20171;-71
2022/08/19 08:54:04;;;;;;;11.75;11.05;;;;;;;20.96;100.00;99486.88;10422408;28;20364;-71
2022/08/19 08:59:16;;;;;;;12.37;11.77;;;;;;;21.13;100.00;99478.31;10422957;28;20049;-70
2022/08/19 09:04:18;;;;;;;12.75;12.05;;;;;;;21.45;100.00;99476.56;10422499;28;20053;-70
2022/08/19 09:09:32;;;;;;;14.15;13.35;;;;;;;21.64;99.96;99492.72;10422403;28;20046;-71
2022/08/19 09:14:53;;;;;;;13.13;12.43;;;;;;;21.73;100.00;99483.91;10421305;28;20038;-71
2022/08/19 09:20:19;;;;;;;14.38;13.57;;;;;;;21.84;95.48;99496.34;10421432;28;20053;-72
2022/08/19 09:25:22;;;;;;;13.82;12.98;;;;;;;21.80;95.80;99478.88;10419808;28;20052;-71
2022/08/19 09:30:31;;;;;;;15.82;14.93;;;;;;;21.87;97.89;99470.19;10419966;28;20044;-71
2022/08/19 09:35:33;;;;;;;14.55;13.70;;;;;;;21.95;97.62;99456.09;10419052;28;20088;-71
2022/08/19 09:40:53;;;;;;;14.23;13.32;;;;;;;22.27;92.81;99455.09;10420235;28;20507;-72
2022/08/19 09:45:57;;;;;;;15.85;14.75;;;;;;;22.10;95.81;99451.25;10419480;28;20112;-72
2022/08/19 09:51:10;;;;;;;14.77;13.93;;;;;;;22.17;94.26;99439.03;10419775;28;20049;-72
2022/08/19 09:56:13;;;;;;;15.82;14.90;;;;;;;22.25;93.80;99455.25;10419054;28;20034;-71
2022/08/19 10:01:25;;;;;;;13.57;12.70;;;;;;;22.25;93.29;99457.09;10418450;28;20128;-72
2022/08/19 10:06:32;;;;;;;12.23;11.50;;;;;;;22.31;88.89;99473.47;10418618;28;20087;-72
2022/08/19 10:11:49;;;;;;;10.20;9.55;;;;;;;22.28;89.64;99462.19;10418892;28;20115;-72
2022/08/19 10:16:56;;;;;;;9.20;8.70;;;;;;;22.35;90.35;99449.91;10418613;28;20407;-72
2022/08/19 10:22:03;;;;;;;8.57;8.07;;;;;;;22.88;86.04;99461.09;10417775;28;20041;-71
2022/08/19 10:27:05;;;;;;;7.50;6.90;;;;;;;23.58;83.78;99472.47;10417666;28;20076;-72
2022/08/19 10:32:09;;;;;;;7.60;7.10;;;;;;;24.16;75.23;99469.59;10417301;28;20553;-72
2022/08/19 10:37:11;;;;;;;6.32;6.03;;;;;;;23.55;78.96;99488.00;10416878;28;20045;-71
2022/08/19 10:42:18;;;;;;;5.30;5.00;;;;;;;23.25;83.94;99487.22;10418143;28;20107;-72
2022/08/19 10:47:22;;;;;;;4.97;4.68;;;;;;;23.91;81.14;99479.19;10416543;28;20041;-71
2022/08/19 10:52:36;;;;;;;;;;;;;;;24.46;76.15;99478.38;10417635;28;20403;-71
2022/08/19 10:57:40;;;;;;;4.75;4.45;;;;;;;24.41;74.36;99492.25;10416515;28;20024;-71
2022/08/19 11:03:02;;;;;;;5.35;5.05;;;;;;;24.24;75.72;99492.19;10416181;28;20049;-72
2022/08/19 11:08:07;;;;;;;7.50;6.93;;;;;;;24.01;75.64;99514.03;10416677;28;20505;-71
2022/08/19 11:13:24;;;;;;;9.50;8.20;;;;;;;23.74;76.06;99495.22;10414602;28;20141;-72
2022/08/19 11:18:26;;;;;;;8.60;8.20;;;;;;;23.67;76.74;99516.41;10416219;28;20041;-72
2022/08/19 11:23:28;;;;;;;9.13;8.48;;;;;;;23.65;76.49;99526.44;10416519;28;20077;-72
2022/08/19 11:28:30;;;;;;;9.40;8.90;;;;;;;23.75;75.86;99531.78;10416608;28;20052;-72
2022/08/19 11:33:32;;;;;;;10.90;10.20;;;;;;;23.51;78.40;99526.88;10416851;28;20510;-72
2022/08/19 11:38:35;;;;;;;12.07;11.18;;;;;;;23.66;76.30;99534.34;10416381;28;20033;-72
2022/08/19 11:43:37;;;;;;;11.50;10.80;;;;;;;23.61;76.67;99527.69;10416861;28;20053;-72
2022/08/19 11:48:38;;;;;;;13.13;12.13;;;;;;;23.56;76.90;99519.22;10417461;28;20050;-70
2022/08/19 11:53:41;;;;;;;11.95;11.25;;;;;;;23.62;77.11;99514.13;10416907;28;20056;-71
2022/08/19 11:58:43;;;;;;;14.60;13.70;;;;;;;23.37;77.35;99528.13;10416634;28;20064;-71
2022/08/19 12:03:47;;;;;;;15.38;14.45;;;;;;;22.95;79.76;99528.44;10414250;28;20055;-71
2022/08/19 12:08:49;;;;;;;15.73;14.73;;;;;;;22.86;79.30;99532.75;10414425;28;20046;-70
2022/08/19 12:13:51;;;;;;;16.20;15.30;;;;;;;22.91;77.86;99535.91;10416435;28;20457;-70
2022/08/19 12:18:54;;;;;;;18.38;17.27;;;;;;;22.83;80.29;99549.13;10421189;28;20048;-70
2022/08/19 12:23:58;;;;;;;17.13;16.13;;;;;;;22.87;80.13;99552.38;10423355;28;20042;-70
2022/08/19 12:29:00;;;;;;;21.60;19.60;;;;;;;22.97;79.15;99555.09;10424121;28;20048;-69
2022/08/19 12:34:02;;;;;;;22.30;20.73;;;;;;;22.59;81.52;99556.69;10423251;28;20056;-70
2022/08/19 12:39:04;;;;;;;20.58;19.17;;;;;;;22.72;80.72;99549.25;10423289;28;20176;-69
2022/08/19 12:44:06;;;;;;;19.60;17.98;;;;;;;22.77;81.14;99551.50;10421461;28;20056;-71
2022/08/19 12:49:10;;;;;;;18.65;17.45;;;;;;;22.86;78.70;99559.56;10422271;28;20046;-69
2022/08/19 12:54:31;;;;;;;25.08;23.50;;;;;;;22.80;79.29;99570.84;10422347;28;20048;-69
2022/08/19 12:59:37;;;;;;;23.80;22.38;;;;;;;22.77;79.67;99560.41;10421986;28;20050;-70
2022/08/19 13:04:40;;;;;;;22.60;21.20;;;;;;;22.71;80.62;99550.25;10422249;28;20124;-71
2022/08/19 13:09:42;;;;;;;23.88;22.30;;;;;;;22.89;79.37;99550.41;10421126;28;20050;-70
2022/08/19 13:14:50;;;;;;;19.05;17.95;;;;;;;22.77;80.97;99549.69;10421769;28;20410;-71
2022/08/19 13:19:51;;;;;;;20.95;19.75;;;;;;;22.70;79.78;99547.69;10421860;28;20045;-70
2022/08/19 13:24:53;;;;;;;24.42;22.95;;;;;;;22.31;82.41;99553.78;10420624;28;20038;-70
2022/08/19 13:35:17;;;;;;;24.40;22.70;;;;;;;22.43;83.37;99554.50;10420001;28;20037;-69
2022/08/19 13:40:23;;;;;;;28.58;26.77;;;;;;;22.22;84.36;99545.69;10419364;28;20046;-70
2022/08/19 13:45:27;;;;;;;31.42;29.40;;;;;;;22.11;84.74;99552.81;10419757;28;20037;-71
2022/08/19 13:50:33;;;;;;;30.38;28.20;;;;;;;22.13;84.11;99544.66;10419444;28;20052;-70
2022/08/19 13:55:36;;;;;;;28.80;26.58;;;;;;;22.22;83.37;99551.06;10419197;28;20125;-71
2022/08/19 14:00:43;;;;;;;29.13;27.20;;;;;;;22.35;82.95;99539.13;10420223;28;20065;-71
2022/08/19 14:05:46;;;;;;;27.83;25.77;;;;;;;22.28;83.57;99543.34;10418444;28;20069;-70
2022/08/19 14:10:48;;;;;;;27.52;25.83;;;;;;;22.39;82.89;99553.94;10417351;28;20431;-70
2022/08/19 14:15:50;;;;;;;31.02;28.60;;;;;;;22.32;82.19;99555.47;10419025;28;20045;-70
2022/08/19 14:20:52;;;;;;;30.92;28.75;;;;;;;22.18;83.04;99555.84;10418752;28;20049;-70
2022/08/19 14:26:11;;;;;;;32.40;29.88;;;;;;;22.19;82.66;99554.03;10418179;28;20395;-70
2022/08/19 14:31:18;;;;;;;31.83;29.80;;;;;;;22.10;83.08;99564.50;10418222;28;20046;-71
2022/08/19 14:36:21;;;;;;;35.47;32.30;;;;;;;21.98;84.26;99557.53;10418549;28;20103;-70
2022/08/19 14:41:23;;;;;;;34.00;31.48;;;;;;;21.82;85.86;99565.19;10416567;28;20120;-70
2022/08/19 14:46:27;;;;;;;34.30;31.85;;;;;;;21.88;86.38;99559.31;10417003;28;20045;-70
2022/08/19 14:51:31;;;;;;;35.28;32.63;;;;;;;21.82;86.65;99567.84;10417249;28;20399;-70
2022/08/19 14:56:32;;;;;;;34.63;31.73;;;;;;;21.94;85.52;99568.66;10416656;28;20054;-70
2022/08/19 15:01:34;;;;;;;32.33;29.83;;;;;;;22.07;84.03;99563.94;10415019;28;20053;-72
2022/08/19 15:06:36;;;;;;;25.50;23.90;;;;;;;21.85;85.89;99551.56;10416143;28;20048;-70
2022/08/19 15:11:38;;;;;;;31.05;28.85;;;;;;;22.23;82.88;99545.59;10434978;28;20044;-70
2022/08/19 15:16:41;;;;;;;31.83;29.52;;;;;;;22.12;83.42;99553.69;10431434;28;20041;-70
2022/08/19 15:21:43;;;;;;;29.90;27.80;;;;;;;22.12;82.96;99559.03;10414274;28;20049;-70
2022/08/19 15:26:44;;;;;;;31.08;28.95;;;;;;;22.15;82.64;99564.97;10418471;28;20045;-70
2022/08/19 15:31:46;;;;;;;34.15;31.27;;;;;;;21.85;83.81;99571.13;10456796;28;20045;-70
2022/08/19 15:36:50;;;;;;;33.78;31.20;;;;;;;21.74;85.26;99570.38;10456820;28;20124;-70
2022/08/19 15:41:51;;;;;;;32.53;30.02;;;;;;;22.06;82.80;99555.06;10456880;28;20079;-70
2022/08/19 15:46:53;;;;;;;31.90;29.52;;;;;;;22.12;80.53;99543.81;10456147;28;20037;-70
2022/08/19 15:51:56;;;;;;;29.80;27.73;;;;;;;21.99;82.43;99535.16;10461408;28;20124;-70
2022/08/19 16:07:41;;;;;;;25.42;23.63;;;;;;;22.19;80.79;99520.06;10456213;28;20041;-70
2022/08/19 16:12:42;;;;;;;26.05;24.45;;;;;;;22.39;79.16;99534.34;10423383;28;20053;-70
2022/08/19 16:17:44;;;;;;;23.63;22.23;;;;;;;22.05;81.35;99544.50;10423037;28;20041;-71
2022/08/19 16:22:58;;;;;;;24.77;23.27;;;;;;;22.09;81.58;99544.09;10464893;28;20041;-70
2022/08/19 16:28:00;;;;;;;22.65;20.75;;;;;;;22.20;80.70;99545.00;10462485;28;20068;-70
2022/08/19 16:33:09;;;;;;;22.42;21.08;;;;;;;22.25;79.80;99535.56;10460501;28;20041;-70
2022/08/19 16:38:11;;;;;;;22.85;21.45;;;;;;;22.26;78.98;99539.94;10421418;28;20038;-71
2022/08/19 16:43:12;;;;;;;23.60;22.10;;;;;;;22.13;79.11;99529.50;10422357;28;20058;-71
2022/08/19 16:48:14;;;;;;;23.15;21.80;;;;;;;21.76;81.67;99512.22;10422098;28;20041;-71
2022/08/19 16:53:21;;;;;;;23.15;21.75;;;;;;;21.87;81.31;99506.81;10420152;28;20103;-71
2022/08/19 16:58:26;;;;;;;22.55;21.05;;;;;;;21.85;81.17;99511.41;10420729;28;20045;-71
2022/08/19 17:03:29;;;;;;;24.10;22.47;;;;;;;21.96;81.27;99511.34;10422679;28;20052;-71
2022/08/19 17:08:37;;;;;;;24.60;22.52;;;;;;;21.88;81.99;99514.69;10422355;28;20280;-71
2022/08/19 17:13:39;;;;;;;24.23;22.50;;;;;;;21.74;83.22;99507.00;10420105;28;20099;-71
2022/08/19 17:18:43;;;;;;;20.23;19.02;;;;;;;21.88;82.50;99514.69;10420859;28;20152;-71
2022/08/19 17:23:45;;;;;;;21.15;19.90;;;;;;;21.75;83.38;99540.81;10420934;28;20415;-71
2022/08/19 17:28:49;;;;;;;22.75;21.23;;;;;;;21.59;84.13;99532.38;10420650;28;20112;-71
2022/08/19 17:33:51;;;;;;;23.38;21.95;;;;;;;21.46;84.90;99531.75;10420425;28;20069;-71
2022/08/19 17:38:59;;;;;;;19.58;18.27;;;;;;;21.69;83.45;99533.28;10420448;28;20116;-71
2022/08/19 17:44:02;;;;;;;18.90;17.70;;;;;;;21.65;83.79;99529.22;10420258;28;20404;-71
2022/08/19 17:49:03;;;;;;;19.95;18.75;;;;;;;21.61;83.36;99536.63;10419669;28;20495;-69
2022/08/19 17:54:10;;;;;;;22.15;20.85;;;;;;;21.60;83.59;99545.66;10419271;28;20403;-69
2022/08/19 17:59:13;;;;;;;22.08;20.70;;;;;;;21.89;82.17;99574.41;10419596;28;20140;-69
2022/08/19 18:04:16;;;;;;;24.42;22.65;;;;;;;21.67;83.66;99586.09;10420683;28;20451;-71
2022/08/19 18:09:17;;;;;;;22.70;21.20;;;;;;;21.51;84.76;99585.66;10418335;28;20415;-70
2022/08/19 18:14:27;;;;;;;19.27;17.88;;;;;;;21.40;85.80;99607.97;10417739;28;20458;-69
2022/08/19 18:19:35;;;;;;;23.02;21.08;;;;;;;21.46;85.53;99614.63;10418860;28;20045;-70
2022/08/19 18:24:43;;;;;;;22.55;21.10;;;;;;;21.62;84.44;99652.50;10416755;28;20200;-70
2022/08/19 18:29:47;;;;;;;22.00;20.50;;;;;;;21.37;85.89;99651.00;10418050;28;20046;-70
2022/08/19 18:34:48;;;;;;;23.02;21.52;;;;;;;21.58;85.18;99657.25;10418164;28;20120;-70
2022/08/19 18:50:31;;;;;;;22.52;20.77;;;;;;;21.34;86.43;99635.22;10419279;28;20060;-70
2022/08/19 18:55:33;;;;;;;25.85;24.10;;;;;;;21.60;84.95;99627.69;10419424;28;20567;-71
2022/08/19 19:00:35;;;;;;;25.73;23.98;;;;;;;21.40;85.64;99632.88;10419603;28;20077;-70
2022/08/19 19:05:41;;;;;;;27.20;25.60;;;;;;;21.39;85.61;99633.88;10419205;28;20495;-70
2022/08/19 19:10:43;;;;;;;33.07;30.93;;;;;;;21.45;84.63;99628.97;10418153;28;20044;-69
2022/08/19 19:15:45;;;;;;;33.58;31.15;;;;;;;21.33;84.25;99631.69;10418903;28;20057;-70
2022/08/19 19:20:47;;;;;;;34.20;31.45;;;;;;;21.24;85.03;99631.56;10418258;28;20049;-72
2022/08/19 19:25:51;;;;;;;31.80;29.25;;;;;;;20.95;86.54;99621.47;10419096;28;20507;-73
2022/08/19 19:30:58;;;;;;;32.88;30.40;;;;;;;21.02;86.17;99627.13;10418910;28;20045;-73
2022/08/19 19:36:04;;;;;;;30.65;28.58;;;;;;;20.90;85.81;99615.66;10417912;28;20042;-73
2022/08/19 19:41:08;;;;;;;28.60;26.48;;;;;;;20.84;86.98;99624.13;10420008;28;20127;-74
2022/08/19 19:46:10;;;;;;;27.60;25.80;;;;;;;20.90;86.27;99634.34;10418365;28;20046;-73
2022/08/19 19:51:13;;;;;;;30.38;27.83;;;;;;;21.03;85.06;99640.38;10418548;28;20132;-74
2022/08/19 19:56:15;;;;;;;26.52;24.80;;;;;;;20.88;85.67;99609.56;10418211;28;20064;-73
2022/08/19 20:01:19;;;;;;;30.42;28.20;;;;;;;21.10;84.74;99597.97;10417967;28;20046;-73
2022/08/19 20:06:27;;;;;;;27.35;25.30;;;;;;;21.12;84.45;99615.59;10416934;28;20048;-72
2022/08/19 20:11:33;;;;;;;27.23;25.42;;;;;;;21.02;84.15;99617.28;10416739;28;20484;-73
2022/08/19 20:16:36;;;;;;;29.87;27.67;;;;;;;20.76;86.57;99619.44;10417579;28;20095;-73
2022/08/19 20:21:43;;;;;;;29.20;26.67;;;;;;;20.75;87.02;99654.25;10416961;28;20065;-72
2022/08/19 20:26:49;;;;;;;25.60;23.85;;;;;;;20.78;86.65;99665.56;10416865;28;20117;-72
2022/08/19 20:31:54;;;;;;;25.08;22.95;;;;;;;20.64;88.30;99645.28;10416064;28;20048;-72
2022/08/19 20:36:59;;;;;;;26.10;24.20;;;;;;;21.13;84.35;99657.38;10417168;28;20041;-72
2022/08/19 20:42:01;;;;;;;24.38;22.77;;;;;;;21.01;84.64;99654.84;10422169;28;20387;-72
2022/08/19 20:47:02;;;;;;;26.00;24.10;;;;;;;20.90;84.81;99648.53;10420928;28;20046;-73
2022/08/19 20:52:05;;;;;;;25.92;23.90;;;;;;;20.95;84.78;99655.34;10422254;28;20081;-71
2022/08/19 20:57:07;;;;;;;21.48;20.08;;;;;;;20.83;85.51;99652.66;10422512;28;20072;-73
2022/08/19 21:02:09;;;;;;;23.98;22.48;;;;;;;20.87;85.36;99650.59;10425458;28;20507;-73
2022/08/19 21:07:11;;;;;;;22.40;21.08;;;;;;;20.68;86.84;99643.22;10424387;28;20045;-72
2022/08/19 21:12:13;;;;;;;24.27;22.65;;;;;;;20.85;85.78;99636.50;10424473;28;20069;-71
2022/08/19 21:17:15;;;;;;;23.38;21.88;;;;;;;20.91;85.16;99636.88;10422943;28;20065;-73
2022/08/19 21:22:17;;;;;;;24.63;22.92;;;;;;;21.01;84.59;99634.31;10421724;28;20479;-72
2022/08/19 21:27:19;;;;;;;25.60;23.60;;;;;;;21.04;84.04;99641.22;10422378;28;20040;-73
2022/08/19 21:32:21;;;;;;;23.98;22.27;;;;;;;20.89;85.10;99657.53;10421460;28;20049;-73
2022/08/19 21:37:23;;;;;;;21.15;19.55;;;;;;;20.83;85.02;99647.34;10425361;28;20048;-72
2022/08/19 21:42:26;;;;;;;22.48;20.70;;;;;;;20.77;85.82;99644.31;10421465;28;20549;-73
2022/08/19 21:47:28;;;;;;;23.08;21.67;;;;;;;20.83;85.46;99641.13;10419215;28;20407;-71
2022/08/19 21:52:30;;;;;;;23.67;22.13;;;;;;;20.85;85.37;99648.06;10422523;28;20051;-73
2022/08/19 21:57:31;;;;;;;23.73;21.90;;;;;;;20.76;85.23;99631.91;10423173;28;20048;-72
2022/08/19 22:02:33;;;;;;;25.50;23.60;;;;;;;20.44;87.96;99635.28;10420355;28;20049;-72
2022/08/19 22:07:35;;;;;;;24.70;22.85;;;;;;;20.73;86.36;99633.03;10421521;28;20048;-72
2022/08/19 22:12:41;;;;;;;24.23;22.42;;;;;;;20.68;86.47;99623.69;10419567;28;20045;-72
2022/08/19 22:17:52;;;;;;;25.25;23.42;;;;;;;20.71;85.94;99640.28;10419406;28;20488;-71
2022/08/19 22:22:58;;;;;;;24.00;22.42;;;;;;;20.55;87.26;99654.03;10421662;28;20119;-74
2022/08/19 22:28:02;;;;;;;24.92;22.85;;;;;;;20.43;88.30;99652.28;10420104;28;20057;-72
2022/08/19 22:33:07;;;;;;;24.17;22.67;;;;;;;20.52;88.33;99650.75;10421100;28;20056;-72
2022/08/19 22:38:10;;;;;;;23.35;21.85;;;;;;;20.60;87.35;99638.50;10421431;28;20057;-72
2022/08/19 22:43:18;;;;;;;27.55;25.08;;;;;;;20.66;86.88;99640.66;10419107;28;20041;-72
2022/08/19 22:48:24;;;;;;;25.42;23.38;;;;;;;20.54;87.99;99649.66;10419395;28;20033;-72
2022/08/19 22:53:25;;;;;;;25.23;23.47;;;;;;;20.53;87.74;99649.78;10419320;28;20041;-71
2022/08/19 22:58:28;;;;;;;25.80;23.40;;;;;;;20.50;88.48;99666.06;10418756;28;20432;-71
2022/08/19 23:03:30;;;;;;;25.25;23.33;;;;;;;20.61;87.11;99656.22;10417715;28;20060;-72
2022/08/19 23:08:32;;;;;;;26.27;24.25;;;;;;;20.67;87.35;99652.19;10417502;28;20042;-71
2022/08/19 23:13:34;;;;;;;27.27;25.15;;;;;;;20.52;87.45;99646.25;10417550;28;20043;-71
2022/08/19 23:18:36;;;;;;;26.83;24.80;;;;;;;20.42;88.80;99642.59;10418824;28;20045;-72
2022/08/19 23:23:38;;;;;;;26.45;24.75;;;;;;;20.52;88.23;99643.59;10419771;28;20510;-72
2022/08/19 23:34:01;;;;;;;25.92;24.20;;;;;;;20.70;86.57;99627.06;10418180;28;20041;-72
2022/08/19 23:39:02;;;;;;;26.52;24.52;;;;;;;20.55;87.07;99623.81;10418453;28;20091;-72
2022/08/19 23:44:05;;;;;;;25.88;24.00;;;;;;;20.35;88.33;99631.53;10416196;28;20507;-72
2022/08/19 23:49:14;;;;;;;27.02;25.05;;;;;;;20.47;87.79;99635.06;10416434;28;20042;-72
2022/08/19 23:54:16;;;;;;;27.38;25.38;;;;;;;20.23;90.06;99629.84;10414859;28;20073;-72